createdAt,value
2019-03-31T00:00:28.060Z,9.32
2019-03-31T00:01:28.037Z,9.33
2019-03-31T00:02:28.045Z,9.38
2019-03-31T00:03:28.012Z,9.39
2019-03-31T00:04:28.026Z,9.35
2019-03-31T00:05:28.010Z,9.29
2019-03-31T00:06:27.994Z,9.24
2019-03-31T00:07:27.975Z,9.10
2019-03-31T00:08:27.965Z,9.15
2019-03-31T00:09:27.971Z,9.14
2019-03-31T00:10:27.944Z,9.15
2019-03-31T00:11:27.927Z,9.20
2019-03-31T00:12:27.926Z,9.13
2019-03-31T00:13:27.902Z,9.11
2019-03-31T00:14:27.903Z,9.17
2019-03-31T00:15:27.896Z,9.11
2019-03-31T00:16:27.878Z,9.08
2019-03-31T00:17:27.864Z,9.05
2019-03-31T00:18:27.849Z,8.98
2019-03-31T00:19:27.854Z,8.95
2019-03-31T00:20:27.827Z,8.89
2019-03-31T00:21:27.826Z,8.95
2019-03-31T00:22:27.808Z,8.98
2019-03-31T00:23:27.793Z,8.94
2019-03-31T00:24:27.805Z,8.94
2019-03-31T00:25:27.774Z,8.91
2019-03-31T00:26:27.785Z,8.99
2019-03-31T00:27:27.753Z,8.95
2019-03-31T00:28:27.740Z,8.84
2019-03-31T00:29:27.722Z,8.87
2019-03-31T00:30:27.738Z,8.81
2019-03-31T00:31:27.704Z,8.86
2019-03-31T00:32:27.688Z,8.84
2019-03-31T00:33:27.684Z,8.73
2019-03-31T00:34:27.677Z,8.70
2019-03-31T00:35:27.717Z,8.62
2019-03-31T00:36:27.651Z,8.63
2019-03-31T00:37:27.650Z,8.63
2019-03-31T00:38:27.630Z,8.55
2019-03-31T00:39:27.620Z,8.55
2019-03-31T00:40:27.625Z,8.52
2019-03-31T00:41:27.597Z,8.45
2019-03-31T00:42:27.618Z,8.44
2019-03-31T00:43:27.577Z,8.44
2019-03-31T00:44:27.568Z,8.43
2019-03-31T00:45:27.577Z,8.34
2019-03-31T00:46:27.542Z,8.34
2019-03-31T00:47:27.536Z,8.44
2019-03-31T00:48:27.515Z,8.30
2019-03-31T00:49:27.516Z,8.30
2019-03-31T00:50:27.501Z,8.33
2019-03-31T00:51:27.497Z,8.37
2019-03-31T00:52:27.487Z,8.34
2019-03-31T00:53:27.521Z,8.33
2019-03-31T00:54:27.867Z,8.36
2019-03-31T00:55:27.439Z,8.30
2019-03-31T00:56:27.530Z,8.26
2019-03-31T00:57:27.419Z,8.29
2019-03-31T00:58:27.413Z,8.25
2019-03-31T00:59:27.398Z,8.25
2019-03-31T01:00:27.380Z,8.23
2019-03-31T01:01:36.260Z,8.18
2019-03-31T01:02:28.372Z,8.23
2019-03-31T01:03:27.357Z,8.22
2019-03-31T01:04:27.362Z,8.26
2019-03-31T01:05:27.331Z,8.18
2019-03-31T01:06:27.353Z,8.18
2019-03-31T01:07:27.300Z,8.18
2019-03-31T01:08:27.308Z,8.11
2019-03-31T01:09:27.313Z,8.10
2019-03-31T01:10:27.308Z,8.12
2019-03-31T01:11:27.280Z,8.10
2019-03-31T01:12:27.251Z,8.02
2019-03-31T01:13:27.243Z,8.02
2019-03-31T01:14:27.229Z,7.97
2019-03-31T01:15:27.217Z,7.98
2019-03-31T01:16:27.224Z,7.95
2019-03-31T01:17:27.214Z,7.85
2019-03-31T01:18:27.190Z,7.87
2019-03-31T01:19:27.181Z,7.83
2019-03-31T01:20:27.167Z,7.87
2019-03-31T01:21:27.190Z,7.87
2019-03-31T01:22:27.153Z,7.75
2019-03-31T01:23:27.137Z,7.75
2019-03-31T01:24:27.130Z,7.79
2019-03-31T01:25:27.111Z,7.72
2019-03-31T01:26:27.098Z,7.74
2019-03-31T01:27:27.101Z,7.72
2019-03-31T01:28:27.101Z,7.64
2019-03-31T01:29:27.091Z,7.63
2019-03-31T01:30:27.066Z,7.68
2019-03-31T01:31:28.492Z,7.61
2019-03-31T01:32:27.050Z,7.67
2019-03-31T01:33:27.019Z,7.68
2019-03-31T01:34:27.005Z,7.64
2019-03-31T01:35:27.002Z,7.58
2019-03-31T01:36:27.028Z,7.60
2019-03-31T01:37:27.006Z,7.63
2019-03-31T01:38:26.968Z,7.50
2019-03-31T01:39:26.959Z,7.53
2019-03-31T01:40:26.944Z,7.48
2019-03-31T01:41:26.939Z,7.55
2019-03-31T01:42:26.945Z,7.43
2019-03-31T01:43:26.925Z,7.39
2019-03-31T01:44:26.897Z,7.35
2019-03-31T01:45:26.895Z,7.34
2019-03-31T01:46:26.884Z,7.37
2019-03-31T01:47:26.902Z,7.37
2019-03-31T01:48:26.859Z,7.27
2019-03-31T01:49:26.845Z,7.32
2019-03-31T01:50:26.832Z,7.25
2019-03-31T01:51:26.831Z,7.27
2019-03-31T01:52:26.810Z,7.25
2019-03-31T01:53:26.833Z,7.24
2019-03-31T01:54:26.784Z,7.16
2019-03-31T01:55:26.775Z,7.06
2019-03-31T01:56:26.808Z,7.15
2019-03-31T01:57:26.775Z,7.06
2019-03-31T01:58:26.750Z,7.09
2019-03-31T01:59:26.734Z,7.06
2019-03-31T02:00:26.748Z,7.07
2019-03-31T02:01:26.750Z,7.07
2019-03-31T02:02:26.731Z,7.07
2019-03-31T02:03:26.703Z,7.06
2019-03-31T02:04:26.711Z,7.03
2019-03-31T02:05:26.668Z,7.05
2019-03-31T02:06:26.662Z,7.03
2019-03-31T02:07:26.644Z,7.02
2019-03-31T02:08:26.659Z,6.98
2019-03-31T02:09:26.632Z,7.02
2019-03-31T02:10:26.615Z,6.92
2019-03-31T02:11:26.645Z,6.97
2019-03-31T02:12:26.606Z,6.99
2019-03-31T02:13:26.594Z,6.94
2019-03-31T02:14:26.567Z,6.95
2019-03-31T02:15:26.586Z,6.81
2019-03-31T02:16:26.579Z,6.89
2019-03-31T02:17:26.553Z,6.85
2019-03-31T02:18:26.559Z,6.80
2019-03-31T02:19:26.521Z,6.81
2019-03-31T02:20:26.504Z,6.84
2019-03-31T02:21:26.494Z,6.84
2019-03-31T02:22:26.487Z,6.74
2019-03-31T02:23:26.512Z,6.69
2019-03-31T02:24:26.472Z,6.61
2019-03-31T02:25:26.449Z,6.64
2019-03-31T02:26:26.456Z,6.61
2019-03-31T02:27:26.432Z,6.61
2019-03-31T02:28:26.462Z,6.58
2019-03-31T02:29:26.410Z,6.52
2019-03-31T02:30:26.404Z,6.56
2019-03-31T02:31:26.394Z,6.55
2019-03-31T02:32:26.391Z,6.55
2019-03-31T02:33:26.364Z,6.56
2019-03-31T02:34:26.448Z,6.54
2019-03-31T02:35:26.356Z,6.54
2019-03-31T02:36:26.338Z,6.51
2019-03-31T02:37:26.317Z,6.58
2019-03-31T02:38:26.342Z,6.59
2019-03-31T02:39:26.356Z,6.56
2019-03-31T02:40:26.287Z,6.64
2019-03-31T02:41:26.288Z,6.67
2019-03-31T02:42:26.277Z,6.64
2019-03-31T02:43:26.259Z,6.67
2019-03-31T02:44:26.310Z,6.61
2019-03-31T02:45:26.251Z,6.70
2019-03-31T02:46:26.229Z,6.66
2019-03-31T02:47:26.224Z,6.66
2019-03-31T02:48:26.221Z,6.64
2019-03-31T02:49:26.206Z,6.61
2019-03-31T02:50:26.177Z,6.59
2019-03-31T02:51:26.166Z,6.62
2019-03-31T02:52:26.155Z,6.58
2019-03-31T02:53:26.155Z,6.48
2019-03-31T02:54:26.163Z,6.58
2019-03-31T02:55:26.166Z,6.44
2019-03-31T02:56:26.107Z,6.46
2019-03-31T02:57:26.113Z,6.38
2019-03-31T02:58:26.099Z,6.36
2019-03-31T02:59:26.096Z,6.33
2019-03-31T03:00:26.099Z,6.43
2019-03-31T03:01:26.066Z,6.44
2019-03-31T03:02:40.566Z,6.34
2019-03-31T03:03:27.030Z,6.38
2019-03-31T03:04:26.035Z,6.36
2019-03-31T03:05:26.025Z,6.36
2019-03-31T03:06:26.010Z,6.28
2019-03-31T03:07:25.999Z,6.33
2019-03-31T03:08:25.988Z,6.18
2019-03-31T03:09:26.023Z,6.21
2019-03-31T03:10:25.961Z,6.25
2019-03-31T03:11:25.968Z,6.19
2019-03-31T03:12:25.947Z,6.14
2019-03-31T03:13:25.926Z,6.11
2019-03-31T03:14:25.913Z,6.17
2019-03-31T03:15:25.932Z,6.08
2019-03-31T03:16:25.900Z,6.08
2019-03-31T03:17:25.874Z,6.01
2019-03-31T03:18:25.868Z,5.99
2019-03-31T03:19:25.866Z,6.00
2019-03-31T03:20:25.899Z,6.03
2019-03-31T03:21:25.836Z,6.00
2019-03-31T03:22:25.831Z,6.04
2019-03-31T03:23:25.811Z,6.00
2019-03-31T03:24:25.801Z,5.99
2019-03-31T03:25:25.806Z,5.96
2019-03-31T03:26:25.805Z,5.99
2019-03-31T03:27:25.859Z,5.90
2019-03-31T03:28:25.754Z,5.94
2019-03-31T03:29:25.749Z,5.76
2019-03-31T03:30:25.796Z,5.78
2019-03-31T03:31:25.772Z,5.86
2019-03-31T03:32:25.704Z,5.83
2019-03-31T03:33:25.697Z,5.90
2019-03-31T03:34:25.714Z,5.86
2019-03-31T03:35:25.694Z,5.79
2019-03-31T03:36:25.702Z,5.78
2019-03-31T03:37:25.651Z,5.74
2019-03-31T03:38:25.640Z,5.76
2019-03-31T03:39:25.687Z,5.72
2019-03-31T03:40:25.664Z,5.75
2019-03-31T03:41:25.620Z,5.64
2019-03-31T03:42:25.603Z,5.64
2019-03-31T03:43:25.594Z,5.64
2019-03-31T03:44:25.575Z,5.58
2019-03-31T03:45:25.574Z,5.63
2019-03-31T03:46:25.609Z,5.48
2019-03-31T03:47:25.568Z,5.45
2019-03-31T03:48:25.550Z,5.48
2019-03-31T03:49:25.536Z,5.45
2019-03-31T03:50:25.511Z,5.43
2019-03-31T03:51:25.603Z,5.45
2019-03-31T03:52:25.497Z,5.38
2019-03-31T03:53:25.502Z,5.48
2019-03-31T03:54:25.581Z,5.45
2019-03-31T03:55:25.451Z,5.40
2019-03-31T03:56:29.021Z,5.51
2019-03-31T03:57:25.446Z,5.40
2019-03-31T03:58:25.457Z,5.42
2019-03-31T03:59:25.412Z,5.36
2019-03-31T04:00:25.417Z,5.42
2019-03-31T04:01:25.415Z,5.24
2019-03-31T04:02:25.387Z,5.35
2019-03-31T04:03:30.659Z,5.38
2019-03-31T04:04:26.353Z,5.31
2019-03-31T04:05:25.387Z,5.30
2019-03-31T04:06:25.347Z,5.40
2019-03-31T04:07:25.361Z,5.31
2019-03-31T04:08:25.309Z,5.38
2019-03-31T04:09:25.338Z,5.33
2019-03-31T04:10:25.292Z,5.36
2019-03-31T04:11:25.288Z,5.40
2019-03-31T04:12:25.291Z,5.40
2019-03-31T04:13:25.273Z,5.36
2019-03-31T04:14:25.253Z,5.35
2019-03-31T04:15:25.230Z,5.31
2019-03-31T04:16:25.247Z,5.35
2019-03-31T04:17:25.247Z,5.35
2019-03-31T04:18:25.208Z,5.30
2019-03-31T04:19:25.217Z,5.28
2019-03-31T04:20:25.187Z,5.21
2019-03-31T04:21:25.181Z,5.20
2019-03-31T04:22:25.205Z,5.24
2019-03-31T04:23:25.158Z,5.15
2019-03-31T04:24:25.145Z,5.18
2019-03-31T04:25:25.145Z,5.17
2019-03-31T04:26:25.137Z,5.10
2019-03-31T04:27:25.146Z,5.12
2019-03-31T04:28:25.091Z,5.22
2019-03-31T04:29:25.099Z,5.12
2019-03-31T04:30:25.094Z,5.10
2019-03-31T04:31:25.077Z,5.13
2019-03-31T04:32:25.084Z,5.06
2019-03-31T04:33:25.098Z,5.06
2019-03-31T04:34:25.034Z,5.15
2019-03-31T04:35:25.019Z,5.17
2019-03-31T04:36:25.029Z,5.12
2019-03-31T04:37:25.025Z,5.10
2019-03-31T04:38:25.015Z,5.13
2019-03-31T04:39:24.989Z,5.20
2019-03-31T04:40:24.981Z,5.13
2019-03-31T04:41:24.958Z,5.17
2019-03-31T04:42:24.962Z,5.12
2019-03-31T04:43:24.943Z,5.15
2019-03-31T04:44:24.939Z,5.17
2019-03-31T04:45:24.941Z,5.10
2019-03-31T04:46:24.905Z,5.04
2019-03-31T04:47:24.913Z,5.02
2019-03-31T04:48:24.892Z,5.17
2019-03-31T04:49:24.872Z,5.09
2019-03-31T04:50:24.866Z,5.06
2019-03-31T04:51:24.848Z,5.06
2019-03-31T04:52:24.837Z,5.03
2019-03-31T04:53:24.845Z,5.02
2019-03-31T04:54:24.815Z,4.99
2019-03-31T04:55:24.810Z,4.99
2019-03-31T04:56:24.812Z,5.07
2019-03-31T04:57:24.780Z,5.02
2019-03-31T04:58:24.779Z,4.99
2019-03-31T04:59:24.760Z,4.97
2019-03-31T05:00:24.755Z,4.97
2019-03-31T05:01:24.735Z,4.96
2019-03-31T05:02:27.130Z,4.91
2019-03-31T05:03:24.749Z,4.88
2019-03-31T05:04:24.704Z,4.86
2019-03-31T05:05:24.701Z,4.85
2019-03-31T05:06:24.694Z,4.85
2019-03-31T05:07:24.674Z,4.88
2019-03-31T05:08:24.729Z,4.85
2019-03-31T05:09:24.665Z,4.86
2019-03-31T05:10:24.650Z,4.85
2019-03-31T05:11:24.657Z,4.86
2019-03-31T05:12:24.613Z,4.78
2019-03-31T05:13:24.652Z,4.85
2019-03-31T05:14:24.592Z,4.85
2019-03-31T05:15:24.628Z,4.82
2019-03-31T05:16:24.596Z,4.88
2019-03-31T05:17:24.610Z,4.84
2019-03-31T05:18:24.552Z,4.88
2019-03-31T05:19:24.555Z,4.80
2019-03-31T05:20:24.528Z,4.91
2019-03-31T05:21:24.519Z,4.82
2019-03-31T05:22:24.509Z,4.78
2019-03-31T05:23:24.512Z,4.75
2019-03-31T05:24:24.487Z,4.75
2019-03-31T05:25:24.477Z,4.82
2019-03-31T05:26:24.472Z,4.86
2019-03-31T05:27:24.459Z,4.86
2019-03-31T05:28:24.469Z,4.86
2019-03-31T05:29:24.444Z,4.75
2019-03-31T05:30:24.433Z,4.89
2019-03-31T05:31:24.421Z,4.88
2019-03-31T05:32:24.416Z,4.85
2019-03-31T05:33:24.388Z,4.75
2019-03-31T05:34:24.429Z,4.88
2019-03-31T05:35:27.115Z,4.78
2019-03-31T05:36:24.363Z,4.91
2019-03-31T05:37:24.410Z,4.85
2019-03-31T05:38:24.361Z,4.80
2019-03-31T05:39:24.412Z,4.89
2019-03-31T05:40:24.333Z,4.91
2019-03-31T05:41:24.337Z,4.97
2019-03-31T05:42:24.292Z,5.02
2019-03-31T05:43:24.293Z,4.96
2019-03-31T05:44:24.294Z,4.97
2019-03-31T05:45:24.266Z,5.00
2019-03-31T05:46:24.252Z,5.02
2019-03-31T05:47:24.264Z,4.99
2019-03-31T05:48:24.234Z,5.07
2019-03-31T05:49:24.251Z,5.04
2019-03-31T05:50:24.230Z,5.10
2019-03-31T05:51:24.197Z,5.02
2019-03-31T05:52:24.197Z,5.10
2019-03-31T05:53:24.190Z,5.22
2019-03-31T05:54:24.187Z,5.20
2019-03-31T05:55:24.157Z,5.24
2019-03-31T05:56:24.150Z,5.20
2019-03-31T05:57:24.193Z,5.15
2019-03-31T05:58:24.132Z,5.21
2019-03-31T05:59:24.145Z,5.24
2019-03-31T06:00:24.130Z,5.28
2019-03-31T06:01:24.099Z,5.38
2019-03-31T06:02:24.084Z,5.35
2019-03-31T06:03:24.083Z,5.31
2019-03-31T06:04:33.001Z,5.42
2019-03-31T06:05:25.073Z,5.56
2019-03-31T06:06:24.052Z,5.46
2019-03-31T06:07:24.045Z,5.60
2019-03-31T06:08:24.039Z,5.68
2019-03-31T06:09:24.002Z,5.63
2019-03-31T06:10:24.006Z,5.81
2019-03-31T06:11:24.022Z,5.91
2019-03-31T06:12:23.984Z,5.93
2019-03-31T06:13:23.973Z,5.91
2019-03-31T06:14:23.955Z,6.03
2019-03-31T06:15:23.976Z,6.14
2019-03-31T06:16:23.940Z,6.21
2019-03-31T06:17:23.940Z,6.31
2019-03-31T06:18:23.909Z,6.38
2019-03-31T06:19:23.905Z,6.48
2019-03-31T06:20:23.931Z,6.56
2019-03-31T06:21:23.891Z,6.62
2019-03-31T06:22:23.870Z,6.70
2019-03-31T06:23:23.866Z,6.74
2019-03-31T06:24:23.853Z,6.80
2019-03-31T06:25:23.850Z,6.97
2019-03-31T06:26:23.855Z,6.98
2019-03-31T06:27:23.820Z,7.09
2019-03-31T06:28:23.814Z,7.21
2019-03-31T06:29:23.808Z,7.25
2019-03-31T06:30:23.788Z,7.40
2019-03-31T06:31:23.763Z,7.45
2019-03-31T06:32:23.749Z,7.53
2019-03-31T06:33:23.764Z,7.50
2019-03-31T06:34:23.728Z,7.71
2019-03-31T06:35:23.753Z,7.82
2019-03-31T06:36:23.755Z,7.89
2019-03-31T06:37:23.714Z,8.02
2019-03-31T06:38:23.693Z,8.01
2019-03-31T06:39:23.742Z,8.15
2019-03-31T06:40:23.687Z,8.19
2019-03-31T06:41:23.661Z,8.37
2019-03-31T06:42:23.665Z,8.53
2019-03-31T06:43:23.650Z,8.56
2019-03-31T06:44:23.624Z,8.76
2019-03-31T06:45:23.605Z,8.77
2019-03-31T06:46:23.614Z,8.81
2019-03-31T06:47:23.634Z,8.96
2019-03-31T06:48:23.573Z,9.15
2019-03-31T06:49:23.568Z,9.17
2019-03-31T06:50:23.579Z,9.36
2019-03-31T06:51:23.568Z,9.46
2019-03-31T06:52:23.583Z,9.54
2019-03-31T06:53:23.554Z,9.65
2019-03-31T06:54:23.520Z,9.64
2019-03-31T06:55:23.525Z,9.84
2019-03-31T06:56:23.509Z,9.86
2019-03-31T06:57:23.493Z,9.97
2019-03-31T06:58:23.468Z,10.07
2019-03-31T06:59:23.452Z,10.20
2019-03-31T07:00:23.453Z,10.25
2019-03-31T07:01:23.437Z,10.36
2019-03-31T07:02:23.428Z,10.44
2019-03-31T07:03:23.433Z,10.53
2019-03-31T07:04:23.408Z,10.68
2019-03-31T07:05:23.404Z,10.73
2019-03-31T07:06:23.393Z,10.78
2019-03-31T07:07:23.974Z,10.89
2019-03-31T07:08:23.380Z,10.99
2019-03-31T07:09:23.347Z,11.09
2019-03-31T07:10:23.332Z,11.17
2019-03-31T07:11:23.336Z,11.24
2019-03-31T07:12:23.362Z,11.22
2019-03-31T07:13:23.299Z,11.40
2019-03-31T07:14:23.288Z,11.40
2019-03-31T07:15:23.282Z,11.52
2019-03-31T07:16:23.272Z,11.57
2019-03-31T07:17:23.270Z,11.54
2019-03-31T07:18:23.274Z,11.73
2019-03-31T07:19:23.247Z,11.82
2019-03-31T07:20:23.251Z,11.91
2019-03-31T07:21:23.209Z,11.95
2019-03-31T07:22:24.432Z,11.95
2019-03-31T07:23:23.210Z,12.04
2019-03-31T07:24:23.186Z,12.13
2019-03-31T07:25:23.171Z,12.14
2019-03-31T07:26:23.197Z,12.07
2019-03-31T07:27:23.142Z,12.16
2019-03-31T07:28:23.148Z,12.27
2019-03-31T07:29:23.157Z,12.32
2019-03-31T07:30:23.109Z,12.35
2019-03-31T07:31:23.102Z,12.41
2019-03-31T07:32:23.138Z,12.57
2019-03-31T07:33:23.107Z,12.53
2019-03-31T07:34:23.068Z,12.70
2019-03-31T07:35:23.062Z,12.72
2019-03-31T07:36:23.047Z,12.77
2019-03-31T07:37:23.034Z,12.90
2019-03-31T07:38:23.045Z,12.87
2019-03-31T07:39:23.082Z,12.87
2019-03-31T07:40:23.383Z,13.00
2019-03-31T07:41:23.178Z,12.93
2019-03-31T07:42:23.020Z,13.01
2019-03-31T07:43:23.009Z,13.12
2019-03-31T07:44:22.968Z,13.17
2019-03-31T07:45:22.949Z,13.22
2019-03-31T07:46:22.965Z,13.23
2019-03-31T07:47:22.938Z,13.30
2019-03-31T07:48:22.915Z,13.29
2019-03-31T07:49:22.932Z,13.39
2019-03-31T07:50:22.897Z,13.41
2019-03-31T07:51:22.888Z,13.51
2019-03-31T07:52:22.876Z,13.66
2019-03-31T07:53:22.861Z,13.73
2019-03-31T07:54:22.944Z,13.73
2019-03-31T07:55:22.843Z,13.84
2019-03-31T07:56:22.837Z,13.85
2019-03-31T07:57:22.828Z,13.91
2019-03-31T07:58:22.824Z,13.89
2019-03-31T07:59:22.810Z,13.85
2019-03-31T08:00:22.781Z,13.95
2019-03-31T08:01:22.784Z,14.04
2019-03-31T08:02:22.834Z,14.00
2019-03-31T08:03:22.754Z,14.15
2019-03-31T08:04:22.763Z,14.18
2019-03-31T08:05:32.976Z,14.24
2019-03-31T08:06:23.716Z,14.32
2019-03-31T08:07:22.701Z,14.24
2019-03-31T08:08:22.694Z,14.36
2019-03-31T08:09:22.707Z,14.46
2019-03-31T08:10:22.697Z,14.46
2019-03-31T08:11:22.676Z,14.51
2019-03-31T08:12:22.662Z,14.54
2019-03-31T08:13:22.639Z,14.61
2019-03-31T08:14:22.650Z,14.60
2019-03-31T08:15:22.628Z,14.69
2019-03-31T08:16:22.617Z,14.77
2019-03-31T08:17:22.599Z,14.80
2019-03-31T08:18:22.580Z,14.88
2019-03-31T08:19:22.583Z,14.88
2019-03-31T08:20:22.575Z,15.07
2019-03-31T08:21:22.585Z,15.10
2019-03-31T08:22:22.543Z,15.20
2019-03-31T08:23:22.530Z,15.17
2019-03-31T08:24:22.524Z,15.29
2019-03-31T08:25:22.565Z,15.39
2019-03-31T08:26:22.495Z,15.41
2019-03-31T08:27:22.501Z,15.57
2019-03-31T08:28:22.475Z,15.56
2019-03-31T08:29:22.478Z,15.65
2019-03-31T08:30:22.466Z,15.80
2019-03-31T08:31:22.444Z,15.83
2019-03-31T08:32:22.432Z,15.83
2019-03-31T08:33:22.437Z,16.01
2019-03-31T08:34:22.415Z,15.94
2019-03-31T08:35:22.452Z,16.01
2019-03-31T08:36:22.382Z,16.05
2019-03-31T08:37:22.374Z,16.14
2019-03-31T08:38:24.441Z,16.14
2019-03-31T08:39:22.362Z,16.28
2019-03-31T08:40:22.367Z,16.30
2019-03-31T08:41:22.337Z,16.34
2019-03-31T08:42:22.339Z,16.48
2019-03-31T08:43:22.320Z,16.50
2019-03-31T08:44:22.320Z,16.48
2019-03-31T08:45:22.302Z,16.66
2019-03-31T08:46:22.276Z,16.75
2019-03-31T08:47:22.307Z,16.78
2019-03-31T08:48:22.260Z,16.93
2019-03-31T08:49:22.249Z,16.83
2019-03-31T08:50:22.259Z,16.81
2019-03-31T08:51:22.256Z,16.85
2019-03-31T08:52:22.231Z,16.81
2019-03-31T08:53:22.194Z,16.86
2019-03-31T08:54:22.187Z,16.96
2019-03-31T08:55:22.196Z,16.98
2019-03-31T08:56:22.169Z,17.00
2019-03-31T08:57:22.158Z,17.00
2019-03-31T08:58:22.136Z,17.06
2019-03-31T08:59:22.133Z,17.19
2019-03-31T09:00:22.182Z,17.11
2019-03-31T09:01:22.114Z,17.15
2019-03-31T09:02:22.097Z,17.22
2019-03-31T09:03:22.095Z,17.22
2019-03-31T09:04:22.077Z,17.28
2019-03-31T09:05:22.064Z,17.36
2019-03-31T09:06:22.081Z,17.33
2019-03-31T09:07:22.054Z,17.49
2019-03-31T09:08:22.050Z,17.58
2019-03-31T09:09:22.027Z,17.74
2019-03-31T09:10:22.037Z,17.74
2019-03-31T09:11:22.016Z,17.84
2019-03-31T09:12:22.019Z,17.96
2019-03-31T09:13:21.983Z,18.08
2019-03-31T09:14:21.965Z,18.10
2019-03-31T09:15:21.956Z,18.17
2019-03-31T09:16:21.982Z,18.26
2019-03-31T09:17:21.935Z,18.23
2019-03-31T09:18:21.930Z,18.39
2019-03-31T09:19:21.931Z,18.44
2019-03-31T09:20:21.909Z,18.62
2019-03-31T09:21:21.908Z,18.57
2019-03-31T09:22:21.914Z,18.57
2019-03-31T09:23:21.868Z,18.67
2019-03-31T09:24:21.871Z,18.75
2019-03-31T09:25:21.844Z,18.84
2019-03-31T09:26:21.850Z,18.90
2019-03-31T09:27:21.882Z,18.92
2019-03-31T09:28:21.826Z,18.99
2019-03-31T09:29:21.806Z,19.11
2019-03-31T09:30:21.810Z,19.13
2019-03-31T09:31:21.797Z,19.18
2019-03-31T09:32:21.780Z,19.19
2019-03-31T09:33:21.762Z,19.14
2019-03-31T09:34:21.753Z,19.25
2019-03-31T09:35:21.738Z,19.31
2019-03-31T09:36:21.765Z,19.40
2019-03-31T09:37:21.720Z,19.43
2019-03-31T09:38:21.708Z,19.50
2019-03-31T09:39:21.705Z,19.48
2019-03-31T09:40:21.688Z,19.47
2019-03-31T09:41:21.684Z,19.66
2019-03-31T09:42:21.692Z,19.69
2019-03-31T09:43:21.645Z,19.78
2019-03-31T09:44:21.633Z,19.88
2019-03-31T09:45:21.630Z,19.95
2019-03-31T09:46:21.650Z,19.98
2019-03-31T09:47:21.643Z,20.03
2019-03-31T09:48:21.604Z,20.02
2019-03-31T09:49:21.579Z,20.11
2019-03-31T09:50:21.583Z,20.18
2019-03-31T09:51:21.563Z,20.18
2019-03-31T09:52:21.574Z,20.21
2019-03-31T09:53:21.550Z,20.28
2019-03-31T09:54:21.545Z,20.36
2019-03-31T09:55:23.164Z,20.35
2019-03-31T09:56:21.508Z,20.35
2019-03-31T09:57:21.540Z,20.38
2019-03-31T09:58:21.484Z,20.41
2019-03-31T09:59:21.473Z,20.47
2019-03-31T10:00:21.469Z,20.61
2019-03-31T10:01:21.462Z,20.52
2019-03-31T10:02:21.557Z,20.61
2019-03-31T10:03:21.438Z,20.61
2019-03-31T10:04:21.448Z,20.74
2019-03-31T10:05:21.420Z,20.59
2019-03-31T10:06:30.056Z,20.76
2019-03-31T10:07:23.981Z,20.77
2019-03-31T10:08:22.265Z,20.77
2019-03-31T10:09:21.362Z,20.89
2019-03-31T10:10:21.369Z,20.79
2019-03-31T10:11:21.348Z,20.80
2019-03-31T10:12:21.331Z,20.87
2019-03-31T10:13:21.340Z,20.94
2019-03-31T10:14:21.325Z,20.99
2019-03-31T10:15:21.332Z,21.03
2019-03-31T10:16:21.288Z,21.12
2019-03-31T10:17:21.278Z,21.07
2019-03-31T10:18:21.287Z,21.16
2019-03-31T10:19:21.262Z,21.37
2019-03-31T10:20:21.248Z,21.29
2019-03-31T10:21:21.258Z,21.37
2019-03-31T10:22:21.216Z,21.28
2019-03-31T10:23:21.234Z,21.37
2019-03-31T10:24:21.214Z,21.43
2019-03-31T10:25:21.184Z,21.29
2019-03-31T10:26:31.698Z,21.42
2019-03-31T10:27:22.166Z,21.37
2019-03-31T10:28:21.176Z,21.43
2019-03-31T10:29:21.161Z,21.50
2019-03-31T10:30:21.133Z,21.50
2019-03-31T10:31:21.122Z,21.58
2019-03-31T10:32:21.120Z,21.67
2019-03-31T10:33:21.126Z,21.65
2019-03-31T10:34:21.089Z,21.68
2019-03-31T10:35:21.090Z,21.65
2019-03-31T10:36:21.060Z,21.79
2019-03-31T10:37:21.064Z,21.82
2019-03-31T10:38:21.050Z,21.69
2019-03-31T10:39:21.067Z,21.74
2019-03-31T10:40:21.019Z,21.67
2019-03-31T10:41:21.022Z,21.59
2019-03-31T10:42:21.024Z,21.56
2019-03-31T10:43:21.000Z,21.64
2019-03-31T10:44:21.019Z,21.68
2019-03-31T10:45:20.991Z,21.64
2019-03-31T10:46:20.959Z,21.71
2019-03-31T10:47:20.945Z,21.71
2019-03-31T10:48:21.443Z,21.72
2019-03-31T10:49:20.933Z,21.79
2019-03-31T10:50:20.937Z,21.75
2019-03-31T10:51:20.905Z,21.80
2019-03-31T10:52:20.908Z,21.82
2019-03-31T10:53:20.906Z,21.79
2019-03-31T10:54:20.868Z,21.83
2019-03-31T10:55:20.894Z,21.75
2019-03-31T10:56:20.852Z,21.80
2019-03-31T10:57:20.844Z,21.84
2019-03-31T10:58:20.850Z,21.80
2019-03-31T10:59:20.833Z,21.84
2019-03-31T11:00:20.830Z,21.88
2019-03-31T11:01:20.831Z,21.94
2019-03-31T11:02:20.786Z,21.98
2019-03-31T11:03:20.770Z,22.00
2019-03-31T11:04:20.782Z,21.96
2019-03-31T11:05:20.767Z,21.98
2019-03-31T11:06:20.744Z,21.99
2019-03-31T11:07:20.748Z,22.00
2019-03-31T11:08:20.728Z,22.10
2019-03-31T11:09:20.731Z,22.05
2019-03-31T11:10:20.750Z,22.14
2019-03-31T11:11:20.705Z,22.09
2019-03-31T11:12:20.698Z,22.17
2019-03-31T11:13:20.659Z,22.18
2019-03-31T11:14:20.651Z,22.22
2019-03-31T11:15:20.674Z,22.17
2019-03-31T11:16:20.631Z,22.22
2019-03-31T11:17:20.616Z,22.14
2019-03-31T11:18:20.606Z,22.18
2019-03-31T11:19:20.603Z,22.22
2019-03-31T11:20:20.601Z,22.20
2019-03-31T11:21:20.572Z,22.21
2019-03-31T11:22:20.567Z,22.20
2019-03-31T11:23:20.563Z,22.33
2019-03-31T11:24:20.546Z,22.31
2019-03-31T11:25:24.786Z,22.35
2019-03-31T11:26:21.536Z,22.21
2019-03-31T11:27:20.535Z,22.42
2019-03-31T11:28:20.503Z,22.57
2019-03-31T11:29:20.500Z,22.83
2019-03-31T11:30:20.496Z,22.90
2019-03-31T11:31:20.471Z,23.00
2019-03-31T11:32:20.486Z,22.98
2019-03-31T11:33:20.445Z,22.98
2019-03-31T11:34:20.438Z,23.10
2019-03-31T11:35:20.459Z,22.90
2019-03-31T11:36:20.453Z,22.82
2019-03-31T11:37:20.405Z,22.72
2019-03-31T11:38:20.408Z,22.65
2019-03-31T11:39:20.391Z,22.70
2019-03-31T11:40:20.384Z,22.68
2019-03-31T11:41:20.383Z,22.58
2019-03-31T11:42:20.346Z,22.57
2019-03-31T11:43:20.341Z,22.52
2019-03-31T11:44:20.333Z,22.54
2019-03-31T11:45:20.324Z,22.55
2019-03-31T11:46:20.333Z,22.54
2019-03-31T11:47:20.291Z,22.62
2019-03-31T11:48:20.283Z,22.61
2019-03-31T11:49:20.278Z,22.51
2019-03-31T11:50:20.283Z,22.55
2019-03-31T11:51:20.271Z,22.68
2019-03-31T11:52:20.235Z,22.68
2019-03-31T11:53:20.249Z,22.67
2019-03-31T11:54:20.219Z,22.68
2019-03-31T11:55:20.215Z,22.68
2019-03-31T11:56:20.226Z,22.72
2019-03-31T11:57:20.192Z,22.75
2019-03-31T11:58:20.183Z,22.73
2019-03-31T11:59:20.975Z,22.76
2019-03-31T12:00:20.152Z,22.76
2019-03-31T12:01:20.138Z,22.68
2019-03-31T12:02:26.825Z,22.73
2019-03-31T12:03:21.130Z,22.73
2019-03-31T12:04:20.114Z,22.83
2019-03-31T12:05:20.244Z,22.77
2019-03-31T12:06:20.229Z,22.80
2019-03-31T12:07:27.882Z,22.75
2019-03-31T12:08:21.062Z,22.77
2019-03-31T12:09:20.067Z,22.77
2019-03-31T12:10:20.333Z,22.86
2019-03-31T12:11:20.036Z,22.73
2019-03-31T12:12:20.112Z,22.82
2019-03-31T12:13:20.025Z,22.82
2019-03-31T12:14:20.007Z,22.77
2019-03-31T12:15:20.033Z,22.79
2019-03-31T12:16:19.980Z,22.80
2019-03-31T12:17:20.010Z,22.86
2019-03-31T12:18:20.026Z,22.75
2019-03-31T12:19:20.038Z,22.80
2019-03-31T12:20:20.026Z,22.73
2019-03-31T12:21:19.997Z,22.62
2019-03-31T12:22:20.002Z,22.68
2019-03-31T12:23:19.898Z,22.73
2019-03-31T12:24:19.896Z,22.68
2019-03-31T12:25:20.259Z,22.68
2019-03-31T12:26:19.899Z,22.70
2019-03-31T12:27:19.884Z,22.65
2019-03-31T12:28:19.849Z,22.68
2019-03-31T12:29:19.835Z,22.73
2019-03-31T12:30:19.826Z,22.80
2019-03-31T12:31:19.809Z,22.76
2019-03-31T12:32:19.830Z,22.73
2019-03-31T12:33:19.819Z,22.85
2019-03-31T12:34:19.804Z,22.86
2019-03-31T12:35:19.781Z,22.90
2019-03-31T12:36:19.759Z,22.85
2019-03-31T12:37:19.746Z,22.80
2019-03-31T12:38:19.768Z,22.80
2019-03-31T12:39:19.767Z,22.76
2019-03-31T12:40:19.713Z,22.80
2019-03-31T12:41:19.702Z,22.80
2019-03-31T12:42:19.693Z,22.91
2019-03-31T12:43:19.705Z,22.90
2019-03-31T12:44:19.681Z,22.97
2019-03-31T12:45:19.660Z,22.95
2019-03-31T12:46:19.672Z,22.91
2019-03-31T12:47:19.648Z,22.95
2019-03-31T12:48:19.666Z,22.86
2019-03-31T12:49:19.626Z,22.76
2019-03-31T12:50:19.627Z,22.82
2019-03-31T12:51:19.600Z,22.80
2019-03-31T12:52:19.582Z,22.72
2019-03-31T12:53:19.587Z,22.75
2019-03-31T12:54:19.582Z,22.76
2019-03-31T12:55:19.565Z,22.76
2019-03-31T12:56:19.546Z,22.72
2019-03-31T12:57:19.550Z,22.82
2019-03-31T12:58:19.541Z,22.75
2019-03-31T12:59:19.535Z,22.72
2019-03-31T13:00:19.551Z,22.77
2019-03-31T13:01:19.497Z,22.76
2019-03-31T13:02:19.479Z,22.83
2019-03-31T13:03:19.499Z,22.90
2019-03-31T13:04:19.501Z,22.94
2019-03-31T13:05:19.447Z,22.94
2019-03-31T13:06:19.434Z,22.91